Time;durP1;ratioP1;P1;durP2;ratioP2;P2;SDS_P1;SDS_P2;PMS_P1;PMS_P2;Temp;Humidity;BMP_temperature;BMP_pressure;BME280_temperature;BME280_humidity;BME280_pressure;Samples;Min_cycle;Max_cycle;Signal;HPM_P1;HPM_P2
2022/11/07 00:02:10;;;;;;;16.42;10.30;;;10.00;99.90;;;;;;5037216;28;20054;-70
2022/11/07 00:04:36;;;;;;;13.02;10.50;;;10.10;99.90;;;;;;5036306;28;20045;-70
2022/11/07 00:07:02;;;;;;;14.23;10.57;;;10.40;99.90;;;;;;5019256;28;20056;-70
2022/11/07 00:09:28;;;;;;;17.25;11.07;;;10.10;99.90;;;;;;5036595;28;20041;-70
2022/11/07 00:11:53;;;;;;;13.90;9.95;;;10.10;99.90;;;;;;5036794;28;20123;-71
2022/11/07 00:14:19;;;;;;;15.52;10.05;;;10.10;99.90;;;;;;5018643;28;20041;-71
2022/11/07 00:16:46;;;;;;;15.82;9.98;;;10.80;99.90;;;;;;5036353;28;20120;-69
2022/11/07 00:19:14;;;;;;;16.60;10.60;;;10.10;99.90;;;;;;5036302;28;20033;-70
2022/11/07 00:21:40;;;;;;;16.52;10.10;;;10.20;99.90;;;;;;5036275;28;20076;-69
2022/11/07 00:24:07;;;;;;;16.10;9.65;;;10.20;99.90;;;;;;5036493;28;20037;-70
2022/11/07 00:26:33;;;;;;;16.80;9.85;;;10.20;99.90;;;;;;5018893;28;20042;-69
2022/11/07 00:28:59;;;;;;;14.57;10.13;;;10.20;99.90;;;;;;5036091;28;20034;-69
2022/11/07 00:31:24;;;;;;;16.73;9.95;;;10.20;99.90;;;;;;5035864;28;20042;-70
2022/11/07 00:33:50;;;;;;;12.60;9.27;;;10.20;99.90;;;;;;5036201;28;20116;-71
2022/11/07 00:36:22;;;;;;;15.50;9.20;;;10.30;99.90;;;;;;5036263;28;20049;-70
2022/11/07 00:38:47;;;;;;;17.98;9.93;;;10.30;99.90;;;;;;5035661;28;20099;-71
2022/11/07 00:41:13;;;;;;;17.25;8.93;;;10.30;99.90;;;;;;5035618;28;20045;-70
2022/11/07 00:43:39;;;;;;;14.02;8.63;;;10.40;99.90;;;;;;5018168;28;20045;-69
2022/11/07 00:46:07;;;;;;;19.73;9.07;;;10.40;99.90;;;;;;5035381;28;20045;-71
2022/11/07 00:48:36;;;;;;;16.88;9.27;;;10.40;99.90;;;;;;5018763;28;20041;-70
2022/11/07 00:51:22;;;;;;;17.27;8.75;;;10.50;99.90;;;;;;5001695;28;20103;-72
2022/11/07 00:53:48;;;;;;;16.08;8.10;;;10.40;99.90;;;;;;5035856;28;20077;-69
2022/11/07 00:56:17;;;;;;;17.30;8.63;;;10.40;99.90;;;;;;5018075;28;20080;-70
2022/11/07 00:58:43;;;;;;;15.30;8.68;;;10.50;99.90;;;;;;5035239;28;20044;-70
2022/11/07 01:01:15;;;;;;;21.20;8.52;;;10.50;99.90;;;;;;5035078;28;20037;-70
2022/11/07 01:06:30;;;;;;;17.17;7.70;;;10.50;99.90;;;;;;5035606;28;20423;-70
2022/11/07 01:08:56;;;;;;;13.23;7.43;;;10.50;99.90;;;;;;5035551;28;20046;-70
2022/11/07 01:11:26;;;;;;;16.70;7.72;;;10.50;99.90;;;;;;5035421;28;20048;-71
2022/11/07 01:13:59;;;;;;;15.45;7.50;;;10.60;99.90;;;;;;5035193;28;20484;-69
2022/11/07 01:16:26;;;;;;;19.50;7.55;;;10.60;99.90;;;;;;5034955;28;20133;-70
2022/11/07 01:18:52;;;;;;;12.48;7.72;;;10.60;99.90;;;;;;5035347;28;20450;-69
2022/11/07 01:21:17;;;;;;;14.77;7.13;;;10.60;99.90;;;;;;5001432;28;20482;-69
2022/11/07 01:23:43;;;;;;;16.83;6.93;;;10.60;99.90;;;;;;5001247;28;20041;-70
2022/11/07 01:26:11;;;;;;;13.40;6.63;;;10.60;99.90;;;;;;5034695;28;20374;-70
2022/11/07 01:28:37;;;;;;;16.42;6.97;;;10.70;99.90;;;;;;5035172;28;20045;-71
2022/11/07 01:31:05;;;;;;;18.23;7.45;;;10.70;99.90;;;;;;5001571;28;20131;-70
2022/11/07 01:33:32;;;;;;;18.52;7.22;;;10.70;99.90;;;;;;5015561;28;20363;-69
2022/11/07 01:36:02;;;;;;;14.30;6.63;;;10.70;99.90;;;;;;4997982;28;20038;-69
2022/11/07 01:38:27;;;;;;;11.85;6.70;;;10.70;99.90;;;;;;5015063;28;20030;-70
2022/11/07 01:44:01;;;;;;;13.82;6.63;;;10.80;99.90;;;;;;4997804;28;20057;-69
2022/11/07 01:46:32;;;;;;;16.20;7.28;;;10.80;99.90;;;;;;5019964;28;20052;-72
2022/11/07 01:49:19;;;;;;;14.65;6.50;;;10.80;99.90;;;;;;5034954;28;20357;-70
2022/11/07 01:51:47;;;;;;;16.73;7.43;;;10.80;99.90;;;;;;5034921;28;20049;-71
2022/11/07 01:54:16;;;;;;;18.55;6.60;;;10.80;99.90;;;;;;5034982;28;20046;-70
2022/11/07 01:56:44;;;;;;;13.52;6.20;;;10.80;99.90;;;;;;5034880;28;20041;-70
2022/11/07 01:59:14;;;;;;;14.80;6.25;;;10.90;99.90;;;;;;5034771;28;20120;-69
2022/11/07 02:01:41;;;;;;;17.63;7.18;;;10.70;99.90;;;;;;5034383;28;20045;-69
2022/11/07 02:04:07;;;;;;;18.83;6.97;;;10.70;99.90;;;;;;5034623;28;20049;-69
2022/11/07 02:06:44;;;;;;;18.50;6.60;;;10.70;99.90;;;;;;5034701;28;20561;-70
2022/11/07 02:09:10;;;;;;;19.30;7.10;;;10.70;99.90;;;;;;5017392;28;20049;-70
2022/11/07 02:11:36;;;;;;;18.88;6.82;;;10.70;99.90;;;;;;5034907;28;20053;-69
2022/11/07 02:14:02;;;;;;;14.65;6.70;;;10.70;99.90;;;;;;5017337;28;20040;-70
2022/11/07 02:16:28;;;;;;;17.48;7.15;;;10.70;99.90;;;;;;5034691;28;20342;-72
2022/11/07 02:18:54;;;;;;;20.45;6.95;;;10.70;99.90;;;;;;5034332;28;20045;-69
2022/11/07 02:21:35;;;;;;;13.38;6.70;;;10.70;99.90;;;;;;5034880;28;20049;-70
2022/11/07 02:24:28;;;;;;;21.10;7.35;;;10.80;99.90;;;;;;5035000;28;20057;-70
2022/11/07 02:26:57;;;;;;;17.50;7.17;;;10.80;99.90;;;;;;5009333;28;20352;-71
2022/11/07 02:29:24;;;;;;;17.98;7.85;;;10.70;99.90;;;;;;5034586;28;20368;-69
2022/11/07 02:32:07;;;;;;;18.98;8.05;;;10.80;99.90;;;;;;5034661;28;20048;-69
2022/11/07 02:34:33;;;;;;;19.05;8.13;;;10.70;99.90;;;;;;5018648;28;20029;-69
2022/11/07 02:37:01;;;;;;;20.02;7.40;;;10.80;99.90;;;;;;5034486;28;20129;-69
2022/11/07 02:39:28;;;;;;;24.05;8.52;;;10.90;99.90;;;;;;5037940;28;20418;-69
2022/11/07 02:41:55;;;;;;;20.73;9.57;;;10.70;99.90;;;;;;5020637;28;20042;-69
2022/11/07 02:44:21;;;;;;;21.35;10.00;;;10.70;99.90;;;;;;5038264;28;20083;-69
2022/11/07 02:46:47;;;;;;;21.33;9.68;;;10.70;99.90;;;;;;5037667;28;20044;-69
2022/11/07 02:49:12;;;;;;;17.88;8.80;;;10.70;99.90;;;;;;5037691;28;20033;-71
2022/11/07 02:51:38;;;;;;;23.40;9.02;;;10.70;99.90;;;;;;5037814;28;20044;-70
2022/11/07 02:54:04;;;;;;;16.55;9.00;;;10.70;99.90;;;;;;5020440;28;20132;-71
2022/11/07 02:56:29;;;;;;;19.08;8.27;;;10.70;99.90;;;;;;5037976;28;20044;-70
2022/11/07 02:58:55;;;;;;;14.55;7.53;;;10.70;99.90;;;;;;5020135;28;20367;-70
2022/11/07 03:01:21;;;;;;;17.92;7.20;;;10.70;99.90;;;;;;5038227;28;20102;-71
2022/11/07 03:03:48;;;;;;;17.00;7.60;;;10.70;99.90;;;;;;5037450;28;20141;-69
2022/11/07 03:06:17;;;;;;;20.98;7.72;;;10.70;99.90;;;;;;5003532;28;20046;-69
2022/11/07 03:08:43;;;;;;;24.38;8.93;;;10.70;99.90;;;;;;5037850;28;20090;-69
2022/11/07 03:11:10;;;;;;;20.00;7.93;;;10.70;99.90;;;;;;5037832;28;20116;-70
2022/11/07 03:13:36;;;;;;;21.38;9.63;;;10.70;99.90;;;;;;5020388;28;20409;-69
2022/11/07 03:16:06;;;;;;;18.20;9.25;;;10.60;99.90;;;;;;5037709;28;20093;-68
2022/11/07 03:18:33;;;;;;;20.40;8.23;;;10.60;99.90;;;;;;5037313;28;20049;-71
2022/11/07 03:20:59;;;;;;;17.88;8.38;;;10.60;99.90;;;;;;5037142;28;20100;-71
2022/11/07 03:23:25;;;;;;;23.08;9.60;;;10.60;99.90;;;;;;5037267;28;20076;-68
2022/11/07 03:25:50;;;;;;;21.35;8.88;;;10.50;99.90;;;;;;5037472;28;20042;-71
2022/11/07 03:28:16;;;;;;;19.88;9.23;;;10.40;99.90;;;;;;5037615;28;20037;-69
2022/11/07 03:30:42;;;;;;;20.67;8.45;;;10.40;99.90;;;;;;5020020;28;20049;-69
2022/11/07 03:33:07;;;;;;;22.52;9.05;;;10.30;99.90;;;;;;5019547;28;20033;-70
2022/11/07 03:35:33;;;;;;;20.63;8.07;;;10.30;99.90;;;;;;5037008;28;20439;-69
2022/11/07 03:37:59;;;;;;;19.52;7.32;;;10.30;99.90;;;;;;5037371;28;20033;-68
2022/11/07 03:40:25;;;;;;;16.60;7.82;;;10.30;99.90;;;;;;5037276;28;20111;-70
2022/11/07 03:42:50;;;;;;;20.27;8.02;;;10.20;99.90;;;;;;5037263;28;20132;-72
2022/11/07 03:45:16;;;;;;;22.75;8.15;;;10.20;99.90;;;;;;5037060;28;20041;-70
2022/11/07 03:47:43;;;;;;;19.90;8.43;;;10.20;99.90;;;;;;5019807;28;20098;-71
2022/11/07 03:50:15;;;;;;;19.90;8.55;;;10.20;99.90;;;;;;5036136;28;20358;-70
2022/11/07 03:52:41;;;;;;;21.70;8.95;;;10.10;99.90;;;;;;5036952;28;20370;-68
2022/11/07 03:55:07;;;;;;;19.38;8.65;;;10.20;99.90;;;;;;5019327;28;20094;-69
2022/11/07 03:57:33;;;;;;;21.02;9.18;;;10.20;99.90;;;;;;5036954;28;20045;-70
2022/11/07 03:59:59;;;;;;;21.58;9.60;;;10.20;99.90;;;;;;5036855;28;20040;-70
2022/11/07 04:02:24;;;;;;;19.02;8.85;;;10.20;99.90;;;;;;5036549;28;20132;-69
2022/11/07 04:04:50;;;;;;;20.27;8.13;;;10.20;99.90;;;;;;5036451;28;20448;-71
2022/11/07 04:07:16;;;;;;;17.63;7.95;;;10.20;99.90;;;;;;5036702;28;20470;-70
2022/11/07 04:09:41;;;;;;;23.00;8.30;;;10.20;99.90;;;;;;5019195;28;20037;-69
2022/11/07 04:17:36;;;;;;;18.15;8.35;;;10.30;99.90;;;;;;5036597;28;20191;-71
2022/11/07 04:20:03;;;;;;;24.15;8.23;;;10.20;99.90;;;;;;5018094;28;20128;-70
2022/11/07 04:22:28;;;;;;;17.65;8.38;;;10.30;99.90;;;;;;5036450;28;20056;-70
2022/11/07 04:24:54;;;;;;;19.48;8.13;;;10.20;99.90;;;;;;5036339;28;20037;-69
2022/11/07 04:30:17;;;;;;;19.27;9.10;;;10.20;99.90;;;;;;5018731;28;20064;-69
2022/11/07 04:32:48;;;;;;;20.63;8.75;;;10.20;99.90;;;;;;5018423;28;20372;-71
2022/11/07 04:35:15;;;;;;;21.55;8.95;;;10.30;99.90;;;;;;5036167;28;20037;-69
2022/11/07 04:37:41;;;;;;;21.73;8.30;;;10.20;99.90;;;;;;5018602;28;20046;-70
2022/11/07 04:40:09;;;;;;;24.08;9.55;;;10.20;99.90;;;;;;5018250;28;20105;-70
2022/11/07 04:42:34;;;;;;;23.20;9.13;;;10.10;99.90;;;;;;5036041;28;20037;-69
2022/11/07 04:45:00;;;;;;;23.05;9.35;;;10.10;99.90;;;;;;5018402;28;20047;-69
2022/11/07 04:47:25;;;;;;;25.35;8.57;;;10.10;99.90;;;;;;5035783;28;20077;-69
2022/11/07 04:49:51;;;;;;;22.80;9.82;;;10.00;99.90;;;;;;5038011;28;20044;-70
2022/11/07 04:52:16;;;;;;;21.08;9.50;;;10.10;99.90;;;;;;5037972;28;20103;-70
2022/11/07 04:54:42;;;;;;;29.25;10.13;;;10.10;99.90;;;;;;5055840;28;20056;-69
2022/11/07 04:57:11;;;;;;;20.98;9.43;;;10.10;99.90;;;;;;5055590;28;20045;-70
2022/11/07 04:59:36;;;;;;;18.75;9.15;;;10.20;99.90;;;;;;5037768;28;20041;-69
2022/11/07 05:02:02;;;;;;;22.45;11.15;;;10.20;99.90;;;;;;5053125;28;20036;-70
2022/11/07 05:04:27;;;;;;;23.50;9.70;;;10.30;99.90;;;;;;5018128;28;20125;-69
2022/11/07 05:06:53;;;;;;;21.83;9.73;;;10.30;99.90;;;;;;5033652;28;20355;-70
2022/11/07 05:09:19;;;;;;;23.70;10.32;;;10.40;99.90;;;;;;5000026;28;20037;-69
2022/11/07 05:11:46;;;;;;;21.38;10.23;;;10.30;99.90;;;;;;5035434;28;20037;-70
2022/11/07 05:14:12;;;;;;;21.48;9.70;;;10.40;99.90;;;;;;5035501;28;20112;-69
2022/11/07 05:16:39;;;;;;;18.17;9.65;;;10.40;99.90;;;;;;5035559;28;20120;-70
2022/11/07 05:19:04;;;;;;;22.35;9.75;;;10.40;99.90;;;;;;5035471;28;20554;-70
2022/11/07 05:21:30;;;;;;;22.45;11.15;;;10.40;99.90;;;;;;5017853;28;20073;-69
2022/11/07 05:23:55;;;;;;;24.80;10.55;;;10.50;99.90;;;;;;5035073;28;20102;-69
2022/11/07 05:26:21;;;;;;;21.83;10.50;;;10.60;99.90;;;;;;5027238;28;20030;-69
2022/11/07 05:28:47;;;;;;;29.20;9.90;;;10.50;99.90;;;;;;5017567;28;20052;-70
2022/11/07 05:31:16;;;;;;;23.73;10.45;;;10.50;99.90;;;;;;5013622;28;20122;-71
2022/11/07 05:33:42;;;;;;;25.02;10.80;;;10.50;99.90;;;;;;5031609;28;20044;-71
2022/11/07 05:36:26;;;;;;;23.23;9.60;;;10.50;99.90;;;;;;5032166;28;20038;-70
2022/11/07 05:38:52;;;;;;;22.98;10.25;;;10.50;99.90;;;;;;5034792;28;20051;-70
2022/11/07 05:41:20;;;;;;;22.70;10.50;;;10.40;99.90;;;;;;5017225;28;20450;-70
2022/11/07 05:43:46;;;;;;;21.52;10.38;;;10.50;99.90;;;;;;5016916;28;20527;-70
2022/11/07 05:46:12;;;;;;;21.02;9.45;;;10.50;99.90;;;;;;5034592;28;20069;-71
2022/11/07 05:48:40;;;;;;;20.55;10.70;;;10.50;99.90;;;;;;5001145;28;20124;-71
2022/11/07 05:51:07;;;;;;;26.00;10.90;;;10.70;99.90;;;;;;5034978;28;20393;-70
2022/11/07 05:53:33;;;;;;;23.20;9.70;;;10.50;99.90;;;;;;5001564;28;20053;-70
2022/11/07 05:55:59;;;;;;;20.27;9.02;;;10.50;99.90;;;;;;5034882;28;20446;-70
2022/11/07 05:58:24;;;;;;;18.92;9.30;;;10.50;99.90;;;;;;5034851;28;20099;-70
2022/11/07 06:00:50;;;;;;;20.40;9.57;;;10.50;99.90;;;;;;5034488;28;20077;-71
2022/11/07 06:03:18;;;;;;;24.02;9.48;;;10.50;99.90;;;;;;5034546;28;20140;-70
2022/11/07 06:05:44;;;;;;;21.55;9.55;;;10.50;99.90;;;;;;5034666;28;20049;-69
2022/11/07 06:08:12;;;;;;;17.48;8.75;;;10.60;99.90;;;;;;5041634;28;20353;-71
2022/11/07 06:10:39;;;;;;;20.85;9.40;;;10.50;99.90;;;;;;5054126;28;20099;-69
2022/11/07 06:13:09;;;;;;;21.13;9.88;;;10.50;99.90;;;;;;5039997;28;20132;-70
2022/11/07 06:15:36;;;;;;;20.98;8.85;;;10.50;99.90;;;;;;5041283;28;20037;-71
2022/11/07 06:18:03;;;;;;;23.77;9.68;;;10.50;99.90;;;;;;5038548;28;20103;-70
2022/11/07 06:20:29;;;;;;;17.55;8.75;;;10.50;99.90;;;;;;5038082;28;20419;-70
2022/11/07 06:22:59;;;;;;;16.13;8.88;;;10.50;99.90;;;;;;5019733;28;20041;-70
2022/11/07 06:25:26;;;;;;;17.30;8.60;;;10.50;99.90;;;;;;5038611;28;20120;-69
2022/11/07 06:27:52;;;;;;;20.15;8.35;;;10.50;99.90;;;;;;5038421;28;20045;-70
2022/11/07 06:30:17;;;;;;;14.75;7.85;;;10.70;99.90;;;;;;5020662;28;20099;-70
2022/11/07 06:32:44;;;;;;;19.13;8.43;;;10.40;99.90;;;;;;5038392;28;20366;-70
2022/11/07 06:35:11;;;;;;;16.33;8.38;;;10.50;99.90;;;;;;5037583;28;20060;-69
2022/11/07 06:37:37;;;;;;;20.05;8.25;;;10.50;99.90;;;;;;5020065;28;20046;-69
2022/11/07 06:40:03;;;;;;;24.75;8.63;;;10.50;99.90;;;;;;5037889;28;20071;-71
2022/11/07 06:42:28;;;;;;;20.00;8.93;;;10.40;99.90;;;;;;5020168;28;20049;-69
2022/11/07 06:44:54;;;;;;;21.17;8.60;;;10.50;99.90;;;;;;5037675;28;20045;-68
2022/11/07 06:47:20;;;;;;;18.92;7.53;;;10.40;99.90;;;;;;5037726;28;20037;-70
2022/11/07 06:49:45;;;;;;;15.77;7.72;;;10.40;99.90;;;;;;5037689;28;20108;-72
2022/11/07 06:52:11;;;;;;;15.70;7.55;;;10.40;99.90;;;;;;5020783;28;20060;-69
2022/11/07 06:54:36;;;;;;;17.17;7.78;;;10.40;99.90;;;;;;5037527;28;20072;-69
2022/11/07 06:57:02;;;;;;;20.85;6.88;;;10.40;99.90;;;;;;5037759;28;20413;-71
2022/11/07 06:59:27;;;;;;;18.38;6.93;;;10.50;99.90;;;;;;5037295;28;20121;-69
2022/11/07 07:01:53;;;;;;;16.38;7.38;;;10.50;99.90;;;;;;5037336;28;20102;-71
2022/11/07 07:04:19;;;;;;;19.15;8.25;;;10.50;99.90;;;;;;5037656;28;20046;-69
2022/11/07 07:06:44;;;;;;;24.17;8.57;;;10.50;99.90;;;;;;5037606;28;20453;-70
2022/11/07 07:09:10;;;;;;;22.75;8.90;;;10.50;99.90;;;;;;5019841;28;20045;-70
2022/11/07 07:11:36;;;;;;;24.73;10.30;;;10.50;99.90;;;;;;5037473;28;20491;-71
2022/11/07 07:14:02;;;;;;;24.20;10.18;;;10.50;99.90;;;;;;5019571;28;20050;-69
2022/11/07 07:16:28;;;;;;;23.83;11.02;;;10.50;99.90;;;;;;5037199;28;20050;-69
2022/11/07 07:18:56;;;;;;;24.70;10.80;;;10.60;99.90;;;;;;5036947;28;20068;-70
2022/11/07 07:21:21;;;;;;;28.13;12.35;;;10.60;99.90;;;;;;5037207;28;20086;-70
2022/11/07 07:23:47;;;;;;;32.30;12.77;;;10.60;99.90;;;;;;5036386;28;20334;-71
2022/11/07 07:26:15;;;;;;;26.95;12.15;;;10.60;99.90;;;;;;5046518;28;20045;-71
2022/11/07 07:28:41;;;;;;;29.58;13.60;;;10.60;99.90;;;;;;5056828;28;20052;-69
2022/11/07 07:31:20;;;;;;;23.20;11.77;;;10.60;99.90;;;;;;5039369;28;20045;-69
2022/11/07 07:33:47;;;;;;;32.20;12.55;;;10.60;99.90;;;;;;5049075;28;20104;-71
2022/11/07 07:36:13;;;;;;;32.80;13.50;;;10.60;99.90;;;;;;5003183;28;20191;-70
2022/11/07 07:38:39;;;;;;;31.73;12.90;;;10.70;99.90;;;;;;5037219;28;20038;-70
2022/11/07 07:41:05;;;;;;;29.90;13.27;;;10.70;99.90;;;;;;5036686;28;20096;-69
2022/11/07 07:43:31;;;;;;;27.20;12.55;;;10.70;99.90;;;;;;5019527;28;20099;-70
2022/11/07 07:46:03;;;;;;;32.03;13.57;;;10.70;99.90;;;;;;5036904;28;20425;-69
2022/11/07 07:48:30;;;;;;;24.98;11.95;;;10.70;99.90;;;;;;5036287;28;20366;-70
2022/11/07 07:50:55;;;;;;;26.85;12.93;;;10.70;99.90;;;;;;5036483;28;20041;-70
2022/11/07 07:53:21;;;;;;;26.08;12.55;;;10.70;99.90;;;;;;5019095;28;20049;-69
2022/11/07 07:55:47;;;;;;;26.80;12.82;;;10.70;99.90;;;;;;5036564;28;20424;-68
2022/11/07 07:58:12;;;;;;;30.10;14.07;;;10.90;99.90;;;;;;5036392;28;20061;-68
2022/11/07 08:00:39;;;;;;;26.83;12.80;;;10.80;99.90;;;;;;5036613;28;20442;-70
2022/11/07 08:03:13;;;;;;;26.58;12.88;;;10.80;99.90;;;;;;5035841;28;20049;-69
2022/11/07 08:05:39;;;;;;;30.27;13.25;;;10.80;99.90;;;;;;5036685;28;20045;-70
2022/11/07 08:08:06;;;;;;;25.70;13.02;;;10.80;99.90;;;;;;5036527;28;20244;-69
2022/11/07 08:10:32;;;;;;;31.13;13.73;;;10.80;99.90;;;;;;5060086;22;20064;-68
2022/11/07 08:12:58;;;;;;;28.65;14.50;;;10.80;99.90;;;;;;4993704;28;20467;-68
2022/11/07 08:15:24;;;;;;;27.17;13.70;;;10.90;99.90;;;;;;5011404;28;20484;-68
2022/11/07 08:17:50;;;;;;;23.77;12.45;;;10.90;99.90;;;;;;4994229;28;20034;-68
2022/11/07 08:20:19;;;;;;;27.20;14.07;;;10.90;99.90;;;;;;4998689;28;20038;-68
2022/11/07 08:22:45;;;;;;;26.45;12.73;;;10.90;99.90;;;;;;5015615;28;20081;-68
2022/11/07 08:25:11;;;;;;;19.27;10.77;;;11.10;99.90;;;;;;5016280;28;20366;-69
2022/11/07 08:27:37;;;;;;;31.95;13.13;;;10.90;99.90;;;;;;5016058;28;20120;-68
2022/11/07 08:30:10;;;;;;;23.85;12.18;;;10.90;99.90;;;;;;4998771;28;20120;-69
2022/11/07 08:32:36;;;;;;;31.45;13.20;;;11.00;99.90;;;;;;5015810;28;20042;-67
2022/11/07 08:35:01;;;;;;;27.25;12.13;;;11.00;99.90;;;;;;5015999;28;20048;-69
2022/11/07 08:37:27;;;;;;;25.27;12.00;;;11.10;99.90;;;;;;5016128;28;20461;-68
2022/11/07 08:39:52;;;;;;;29.88;11.48;;;11.10;99.90;;;;;;5016092;28;20046;-69
2022/11/07 08:42:18;;;;;;;26.08;11.93;;;11.20;99.90;;;;;;4998749;28;20034;-69
2022/11/07 08:44:43;;;;;;;30.95;12.23;;;11.10;99.90;;;;;;5015826;28;20042;-69
2022/11/07 08:47:09;;;;;;;33.50;11.20;;;11.20;99.90;;;;;;5015893;28;20061;-70
2022/11/07 08:49:34;;;;;;;30.10;11.05;;;11.20;99.90;;;;;;5015945;28;20050;-70
2022/11/07 08:52:00;;;;;;;25.02;10.43;;;11.20;99.90;;;;;;5015721;28;20061;-70
2022/11/07 08:54:27;;;;;;;25.52;10.55;;;11.20;99.90;;;;;;5013985;28;20111;-70
2022/11/07 08:56:53;;;;;;;25.70;10.75;;;11.30;99.90;;;;;;5014740;28;20053;-70
2022/11/07 08:59:18;;;;;;;27.77;10.82;;;11.30;99.90;;;;;;5014680;28;20136;-70
2022/11/07 09:01:44;;;;;;;25.15;10.30;;;11.40;99.90;;;;;;5015040;28;20042;-70
2022/11/07 09:04:10;;;;;;;27.90;9.75;;;11.40;99.90;;;;;;5014600;28;20038;-71
2022/11/07 09:06:35;;;;;;;25.65;10.15;;;11.30;99.90;;;;;;4997027;28;20424;-67
2022/11/07 09:09:01;;;;;;;25.48;9.85;;;11.50;99.90;;;;;;5014457;28;20041;-69
2022/11/07 09:11:27;;;;;;;22.83;10.32;;;11.40;99.90;;;;;;5014838;28;20561;-67
2022/11/07 09:13:54;;;;;;;26.45;9.70;;;11.50;99.90;;;;;;5014171;28;20074;-68
2022/11/07 09:16:21;;;;;;;24.02;9.30;;;11.80;99.90;;;;;;5014594;28;20038;-68
2022/11/07 09:18:48;;;;;;;25.67;9.40;;;11.50;99.90;;;;;;5013328;28;20143;-69
2022/11/07 09:21:15;;;;;;;26.00;9.40;;;11.50;99.90;;;;;;5014487;28;20050;-68
2022/11/07 09:23:40;;;;;;;23.27;8.75;;;11.50;99.90;;;;;;5014761;28;20466;-69
2022/11/07 09:26:06;;;;;;;26.30;8.52;;;11.60;99.90;;;;;;5015418;28;20046;-67
2022/11/07 09:28:32;;;;;;;23.92;9.20;;;11.60;99.90;;;;;;5015201;28;20053;-69
2022/11/07 09:30:59;;;;;;;22.73;8.35;;;11.70;99.90;;;;;;4997582;28;20038;-68
2022/11/07 09:33:25;;;;;;;20.17;9.50;;;11.70;99.90;;;;;;5014690;28;20041;-68
2022/11/07 09:35:51;;;;;;;21.10;8.35;;;11.80;99.90;;;;;;4996985;28;20034;-68
2022/11/07 09:38:17;;;;;;;22.10;7.90;;;11.80;99.90;;;;;;5015041;28;20117;-69
2022/11/07 09:41:00;;;;;;;18.55;7.88;;;11.80;99.90;;;;;;5015069;28;20045;-69
2022/11/07 09:43:53;;;;;;;17.95;7.45;;;11.90;99.90;;;;;;5015093;28;20038;-69
2022/11/07 09:46:31;;;;;;;27.58;8.38;;;11.90;99.90;;;;;;5014546;28;20104;-69
2022/11/07 09:49:20;;;;;;;20.73;7.82;;;12.00;99.90;;;;;;5014744;28;20050;-69
2022/11/07 09:51:58;;;;;;;22.58;7.07;;;12.00;99.90;;;;;;5014764;28;20054;-70
2022/11/07 09:54:28;;;;;;;22.55;7.85;;;12.00;99.90;;;;;;5014573;28;20060;-68
2022/11/07 09:56:56;;;;;;;22.05;8.10;;;12.10;99.90;;;;;;5014616;28;20361;-68
2022/11/07 09:59:32;;;;;;;18.95;7.32;;;12.10;99.90;;;;;;4997277;28;20457;-69
2022/11/07 10:01:58;;;;;;;16.60;6.43;;;12.30;99.90;;;;;;5014914;28;20050;-68
2022/11/07 10:04:24;;;;;;;18.17;6.82;;;12.10;99.90;;;;;;5014793;28;20040;-69
2022/11/07 10:07:08;;;;;;;18.98;6.82;;;12.20;99.90;;;;;;4997134;28;20064;-69
2022/11/07 10:10:26;;;;;;;19.25;7.00;;;12.10;99.90;;;;;;5014594;28;20058;-68
2022/11/07 10:13:17;;;;;;;20.50;6.90;;;12.20;99.90;;;;;;4984107;28;20057;-70
2022/11/07 10:15:53;;;;;;;15.10;6.00;;;12.30;99.90;;;;;;5015021;28;20112;-69
2022/11/07 10:18:25;;;;;;;20.23;6.25;;;12.30;99.90;;;;;;5015019;28;20045;-69
2022/11/07 10:21:28;;;;;;;21.23;7.57;;;12.40;99.90;;;;;;5014456;28;20057;-69
2022/11/07 10:24:12;;;;;;;17.13;6.47;;;12.30;99.90;;;;;;5014477;28;20069;-69
2022/11/07 10:26:42;;;;;;;24.77;6.25;;;12.30;99.90;;;;;;5014645;28;20058;-69
2022/11/07 10:29:19;;;;;;;18.23;6.28;;;12.30;99.90;;;;;;5014334;28;20034;-69
2022/11/07 10:32:14;;;;;;;16.10;5.65;;;12.40;99.90;;;;;;4997082;28;20052;-68
2022/11/07 10:34:46;;;;;;;20.27;6.38;;;12.30;99.90;;;;;;5014487;28;20042;-69
2022/11/07 10:37:11;;;;;;;17.15;5.70;;;12.40;99.90;;;;;;4997275;28;20468;-69
2022/11/07 10:39:37;;;;;;;22.83;6.93;;;12.40;99.90;;;;;;5014122;28;20038;-69
2022/11/07 10:42:08;;;;;;;16.80;6.25;;;12.50;99.90;;;;;;4996941;28;20043;-69
2022/11/07 10:44:34;;;;;;;19.20;6.00;;;12.50;99.90;;;;;;5014143;28;20446;-68
2022/11/07 10:47:02;;;;;;;17.95;5.65;;;12.50;99.90;;;;;;5014451;28;20042;-69
2022/11/07 10:49:28;;;;;;;19.02;5.88;;;12.70;99.90;;;;;;5013391;28;20402;-69
2022/11/07 10:52:06;;;;;;;15.00;5.82;;;12.60;99.90;;;;;;5014006;28;20049;-68
2022/11/07 10:54:32;;;;;;;16.00;5.93;;;12.70;99.90;;;;;;5014504;28;20046;-69
2022/11/07 10:57:03;;;;;;;17.25;6.57;;;12.70;99.90;;;;;;4997370;28;20052;-69
2022/11/07 10:59:31;;;;;;;19.17;6.13;;;12.90;99.90;;;;;;4982139;28;20465;-69
2022/11/07 11:01:59;;;;;;;15.65;5.55;;;13.00;99.90;;;;;;5017552;28;20108;-69
2022/11/07 11:04:30;;;;;;;16.75;5.65;;;13.00;99.90;;;;;;5017618;28;20096;-69
2022/11/07 11:07:02;;;;;;;20.75;5.88;;;13.00;99.90;;;;;;5019244;28;20149;-68
2022/11/07 11:09:34;;;;;;;17.13;6.20;;;13.00;99.90;;;;;;5022922;28;20057;-69
2022/11/07 11:12:11;;;;;;;18.85;5.32;;;13.00;99.90;;;;;;5032011;28;20050;-69
2022/11/07 11:14:41;;;;;;;16.48;5.70;;;13.00;99.90;;;;;;5028038;28;20045;-69
2022/11/07 11:17:24;;;;;;;17.20;5.75;;;13.10;99.90;;;;;;5023058;28;20077;-70
2022/11/07 11:19:52;;;;;;;16.60;6.45;;;13.10;99.90;;;;;;5029603;28;20042;-69
2022/11/07 11:22:23;;;;;;;15.02;5.13;;;13.30;99.90;;;;;;5023630;28;20034;-69
2022/11/07 11:25:18;;;;;;;14.35;5.40;;;13.30;99.90;;;;;;5033087;28;20033;-69
2022/11/07 11:27:47;;;;;;;17.13;5.55;;;13.40;99.90;;;;;;5026322;28;20041;-70
2022/11/07 11:30:17;;;;;;;20.30;5.72;;;13.50;99.90;;;;;;5031480;28;20096;-70
2022/11/07 11:33:18;;;;;;;24.23;5.93;;;13.50;99.90;;;;;;5019794;28;20061;-70
2022/11/07 11:35:54;;;;;;;18.35;5.38;;;13.40;99.90;;;;;;5034977;28;20507;-70
2022/11/07 11:38:27;;;;;;;17.58;5.15;;;13.40;99.90;;;;;;5018829;28;20106;-69
2022/11/07 11:41:18;;;;;;;15.40;5.75;;;13.40;99.90;;;;;;5019208;28;20049;-69
2022/11/07 11:43:54;;;;;;;14.82;4.82;;;13.40;99.90;;;;;;5018866;28;20124;-69
2022/11/07 11:46:47;;;;;;;16.88;5.18;;;13.40;99.90;;;;;;5036453;28;20052;-70
2022/11/07 11:49:35;;;;;;;18.52;5.35;;;13.50;99.90;;;;;;4996202;28;20042;-69
2022/11/07 11:52:10;;;;;;;18.15;5.60;;;13.50;99.90;;;;;;5004150;28;20424;-71
2022/11/07 11:54:35;;;;;;;14.57;4.75;;;13.60;99.90;;;;;;5027467;28;20029;-70
2022/11/07 11:57:08;;;;;;;15.35;5.63;;;13.50;99.90;;;;;;5024556;28;20523;-70
2022/11/07 11:59:46;;;;;;;15.73;5.03;;;13.60;99.90;;;;;;5032678;28;20117;-70
2022/11/07 12:02:33;;;;;;;12.77;4.60;;;13.60;99.90;;;;;;5021548;28;20041;-70
2022/11/07 12:05:11;;;;;;;17.75;5.13;;;13.60;99.90;;;;;;5036483;28;20566;-69
2022/11/07 12:08:10;;;;;;;16.13;4.72;;;13.70;99.90;;;;;;5050033;22;20016;-69
2022/11/07 12:10:42;;;;;;;14.23;4.75;;;13.80;99.90;;;;;;4991809;28;20049;-71
2022/11/07 12:13:26;;;;;;;14.73;4.57;;;13.80;99.90;;;;;;5032579;28;20112;-70
2022/11/07 12:16:10;;;;;;;;;;;13.80;99.90;;;;;;5021641;28;20049;-71
2022/11/07 12:19:02;;;;;;;15.48;4.68;;;13.80;99.90;;;;;;5032407;28;19924;-70
2022/11/07 12:21:32;;;;;;;15.75;4.82;;;13.80;99.90;;;;;;4996512;28;20081;-72
2022/11/07 12:24:29;;;;;;;15.85;4.63;;;13.90;99.90;;;;;;4997068;28;20050;-70
2022/11/07 12:26:54;;;;;;;17.25;5.18;;;14.00;99.90;;;;;;4996576;28;20038;-70
2022/11/07 12:29:33;;;;;;;15.25;4.30;;;14.10;99.90;;;;;;4996745;28;20044;-72
2022/11/07 12:32:27;;;;;;;11.98;3.53;;;14.00;99.90;;;;;;4996575;28;20046;-72
2022/11/07 12:35:01;;;;;;;12.15;3.75;;;14.10;99.90;;;;;;4979741;28;20108;-71
2022/11/07 12:37:36;;;;;;;13.82;3.65;;;14.00;99.90;;;;;;5025647;28;20065;-70
2022/11/07 12:40:28;;;;;;;13.10;3.85;;;14.10;99.90;;;;;;5022512;28;20120;-72
2022/11/07 12:42:59;;;;;;;19.90;4.05;;;14.20;99.90;;;;;;5035520;28;20096;-72
2022/11/07 12:45:40;;;;;;;10.75;3.63;;;14.10;99.90;;;;;;5035952;28;20041;-72
2022/11/07 12:48:24;;;;;;;15.88;4.88;;;14.10;99.90;;;;;;5035825;28;20172;-72
2022/11/07 12:51:47;;;;;;;12.75;3.80;;;14.20;99.90;;;;;;5018343;28;20055;-71
2022/11/07 12:54:36;;;;;;;11.68;3.60;;;14.10;99.90;;;;;;5013856;28;20128;-72
2022/11/07 12:57:24;;;;;;;13.68;4.03;;;14.20;99.90;;;;;;5015610;28;20037;-70
2022/11/07 13:00:11;;;;;;;17.25;3.80;;;14.30;99.90;;;;;;5015111;28;20085;-70
2022/11/07 13:03:10;;;;;;;14.20;4.03;;;14.30;99.90;;;;;;5015747;28;20046;-72
2022/11/07 13:05:51;;;;;;;11.32;3.95;;;14.30;99.90;;;;;;5030656;28;20055;-71